createdAt,value
2023-03-18T00:00:09.986Z,100437.16
2023-03-18T00:02:38.149Z,100424.13
2023-03-18T00:05:07.476Z,100415.47
2023-03-18T00:07:36.122Z,100422.56
2023-03-18T00:10:03.607Z,100427.41
2023-03-18T00:12:30.151Z,100432.88
2023-03-18T00:14:56.543Z,100436.41
2023-03-18T00:17:23.003Z,100442.16
2023-03-18T00:19:50.271Z,100442.41
2023-03-18T00:22:17.202Z,100442.69
2023-03-18T00:24:43.700Z,100450.03
2023-03-18T00:27:10.171Z,100444.94
2023-03-18T00:29:36.542Z,100441.69
2023-03-18T00:32:03.374Z,100443.88
2023-03-18T00:34:29.762Z,100436.81
2023-03-18T00:37:00.156Z,100433.53
2023-03-18T00:39:28.897Z,100437.31
2023-03-18T00:41:56.880Z,100423.69
2023-03-18T00:44:25.297Z,100430.25
2023-03-18T00:46:52.088Z,100424.50
2023-03-18T00:49:19.111Z,100419.03
2023-03-18T00:51:46.281Z,100426.41
2023-03-18T00:54:17.816Z,100430.75
2023-03-18T00:56:44.149Z,100439.78
2023-03-18T00:59:10.539Z,100442.25
2023-03-18T01:01:37.785Z,100442.75
2023-03-18T01:04:04.781Z,100435.16
2023-03-18T01:06:33.866Z,100436.81
2023-03-18T01:09:01.418Z,100438.41
2023-03-18T01:11:28.837Z,100447.69
2023-03-18T01:13:55.359Z,100443.31
2023-03-18T01:16:22.580Z,100427.25
2023-03-18T01:18:49.154Z,100427.22
2023-03-18T01:21:17.005Z,100422.91
2023-03-18T01:23:43.461Z,100414.00
2023-03-18T01:26:10.783Z,100419.97
2023-03-18T01:28:37.488Z,100421.00
2023-03-18T01:31:04.589Z,100421.53
2023-03-18T01:33:31.495Z,100434.28
2023-03-18T01:36:00.081Z,100436.19
2023-03-18T01:38:31.107Z,100436.19
2023-03-18T01:40:59.524Z,100427.72
2023-03-18T01:43:30.485Z,100437.31
2023-03-18T01:45:59.762Z,100428.09
2023-03-18T01:48:31.644Z,100429.38
2023-03-18T01:51:06.274Z,100427.47
2023-03-18T01:53:39.045Z,100424.69
2023-03-18T01:56:06.714Z,100411.63
2023-03-18T01:58:38.451Z,100404.09
2023-03-18T02:01:09.876Z,100396.00
2023-03-18T02:03:36.822Z,100401.69
2023-03-18T02:06:03.649Z,100397.88
2023-03-18T02:08:30.153Z,100404.13
2023-03-18T02:10:56.695Z,100404.63
2023-03-18T02:13:24.801Z,100411.13
2023-03-18T02:16:01.478Z,100414.97
2023-03-18T02:18:34.458Z,100413.31
2023-03-18T02:21:20.657Z,100417.69
2023-03-18T02:24:09.433Z,100407.34
2023-03-18T02:26:59.393Z,100409.53
2023-03-18T02:29:31.162Z,100403.78
2023-03-18T02:32:01.904Z,100402.72
2023-03-18T02:34:29.899Z,100404.59
2023-03-18T02:36:57.422Z,100403.75
2023-03-18T02:39:23.958Z,100405.59
2023-03-18T02:41:50.612Z,100402.88
2023-03-18T02:44:19.270Z,100399.66
2023-03-18T02:46:59.279Z,100405.59
2023-03-18T02:49:27.518Z,100415.13
2023-03-18T02:51:54.925Z,100417.56
2023-03-18T02:54:24.084Z,100413.75
2023-03-18T02:56:51.369Z,100413.75
2023-03-18T02:59:19.025Z,100416.47
2023-03-18T03:01:48.326Z,100420.75
2023-03-18T03:04:16.605Z,100423.16
2023-03-18T03:06:44.008Z,100431.31
2023-03-18T03:09:13.536Z,100434.81
2023-03-18T03:11:40.831Z,100438.09
2023-03-18T03:14:08.396Z,100424.56
2023-03-18T03:16:36.092Z,100433.28
2023-03-18T03:19:02.709Z,100446.56
2023-03-18T03:21:29.150Z,100442.53
2023-03-18T03:23:55.551Z,100443.09
2023-03-18T03:26:22.172Z,100442.56
2023-03-18T03:28:48.638Z,100450.22
2023-03-18T03:31:15.426Z,100440.97
2023-03-18T03:33:43.626Z,100444.16
2023-03-18T03:36:13.430Z,100457.63
2023-03-18T03:38:41.595Z,100452.75
2023-03-18T03:41:10.302Z,100460.03
2023-03-18T03:43:38.760Z,100456.97
2023-03-18T03:46:05.859Z,100457.97
2023-03-18T03:48:32.430Z,100458.25
2023-03-18T03:50:58.867Z,100461.78
2023-03-18T03:53:25.312Z,100467.22
2023-03-18T03:55:52.367Z,100467.41
2023-03-18T03:58:18.784Z,100475.00
2023-03-18T04:00:45.140Z,100466.28
2023-03-18T04:03:11.826Z,100474.16
2023-03-18T04:05:38.303Z,100473.31
2023-03-18T04:08:05.115Z,100473.84
2023-03-18T04:10:32.098Z,100473.03
2023-03-18T04:12:58.707Z,100475.75
2023-03-18T04:15:25.718Z,100476.25
2023-03-18T04:17:52.092Z,100479.53
2023-03-18T04:20:18.926Z,100479.78
2023-03-18T04:22:45.676Z,100498.84
2023-03-18T04:25:12.582Z,100502.06
2023-03-18T04:27:39.134Z,100488.75
2023-03-18T04:30:08.125Z,100503.66
2023-03-18T04:32:34.503Z,100501.75
2023-03-18T04:35:00.877Z,100509.41
2023-03-18T04:37:27.268Z,100512.75
2023-03-18T04:39:53.818Z,100520.53
2023-03-18T04:42:20.159Z,100516.75
2023-03-18T04:44:46.528Z,100520.50
2023-03-18T04:47:13.727Z,100515.31
2023-03-18T04:49:40.498Z,100516.63
2023-03-18T04:52:07.498Z,100523.22
2023-03-18T04:54:33.960Z,100525.16
2023-03-18T04:57:00.697Z,100519.16
2023-03-18T04:59:27.171Z,100528.88
2023-03-18T05:01:53.992Z,100521.06
2023-03-18T05:04:20.383Z,100527.28
2023-03-18T05:06:47.228Z,100521.94
2023-03-18T05:09:13.612Z,100521.34
2023-03-18T05:11:39.923Z,100517.44
2023-03-18T05:14:06.679Z,100517.50
2023-03-18T05:16:33.372Z,100524.34
2023-03-18T05:18:59.782Z,100532.16
2023-03-18T05:21:26.264Z,100519.28
2023-03-18T05:23:52.641Z,100527.63
2023-03-18T05:26:19.048Z,100520.56
2023-03-18T05:28:45.472Z,100525.28
2023-03-18T05:31:13.024Z,100530.78
2023-03-18T05:33:39.415Z,100535.38
2023-03-18T05:36:06.171Z,100531.50
2023-03-18T05:38:32.643Z,100525.97
2023-03-18T05:40:59.030Z,100526.75
2023-03-18T05:43:26.187Z,100525.63
2023-03-18T05:45:52.660Z,100531.91
2023-03-18T05:48:19.202Z,100533.56
2023-03-18T05:50:46.720Z,100537.41
2023-03-18T05:53:13.320Z,100540.94
2023-03-18T05:55:40.408Z,100544.09
2023-03-18T05:58:07.295Z,100546.00
2023-03-18T06:00:34.429Z,100540.25
2023-03-18T06:03:01.765Z,100543.16
2023-03-18T06:05:29.615Z,100543.22
2023-03-18T06:07:56.917Z,100538.44
2023-03-18T06:10:25.378Z,100558.25
2023-03-18T06:12:52.635Z,100558.09
2023-03-18T06:15:19.480Z,100557.06
2023-03-18T06:17:46.341Z,100568.28
2023-03-18T06:20:14.731Z,100571.34
2023-03-18T06:22:41.938Z,100569.69
2023-03-18T06:25:08.742Z,100562.16
2023-03-18T06:27:35.578Z,100562.69
2023-03-18T06:30:04.504Z,100572.00
2023-03-18T06:32:31.215Z,100567.72
2023-03-18T06:34:57.680Z,100568.09
2023-03-18T06:37:24.466Z,100571.56
2023-03-18T06:39:51.181Z,100576.56
2023-03-18T06:42:17.817Z,100576.56
2023-03-18T06:44:50.389Z,100574.41
2023-03-18T06:47:19.080Z,100569.88
2023-03-18T06:49:45.636Z,100575.66
2023-03-18T06:52:12.837Z,100583.94
2023-03-18T06:54:39.289Z,100577.66
2023-03-18T06:57:06.401Z,100578.19
2023-03-18T06:59:33.066Z,100580.50
2023-03-18T07:01:59.641Z,100578.69
2023-03-18T07:04:26.248Z,100582.69
2023-03-18T07:06:52.633Z,100583.63
2023-03-18T07:09:19.359Z,100576.28
2023-03-18T07:11:46.884Z,100582.66
2023-03-18T07:14:14.544Z,100589.81
2023-03-18T07:16:41.239Z,100593.94
2023-03-18T07:19:07.707Z,100595.38
2023-03-18T07:21:35.315Z,100589.75
2023-03-18T07:24:03.876Z,100607.25
2023-03-18T07:26:30.439Z,100595.22
2023-03-18T07:28:56.910Z,100596.91
2023-03-18T07:31:23.912Z,100602.13
2023-03-18T07:33:50.546Z,100600.50
2023-03-18T07:36:17.587Z,100617.19
2023-03-18T07:38:43.983Z,100608.78
2023-03-18T07:41:11.163Z,100607.22
2023-03-18T07:43:38.568Z,100618.91
2023-03-18T07:46:05.653Z,100613.47
2023-03-18T07:48:34.172Z,100618.38
2023-03-18T07:51:01.188Z,100623.28
2023-03-18T07:53:28.617Z,100629.81
2023-03-18T07:55:55.533Z,100627.97
2023-03-18T07:58:22.229Z,100630.44
2023-03-18T08:00:49.539Z,100634.81
2023-03-18T08:03:16.537Z,100636.97
2023-03-18T08:05:42.836Z,100645.75
2023-03-18T08:08:09.798Z,100644.09
2023-03-18T08:10:36.636Z,100640.28
2023-03-18T08:13:03.913Z,100638.66
2023-03-18T08:15:30.677Z,100638.91
2023-03-18T08:17:57.457Z,100644.38
2023-03-18T08:20:23.892Z,100642.75
2023-03-18T08:22:50.765Z,100638.38
2023-03-18T08:25:17.281Z,100647.38
2023-03-18T08:27:43.735Z,100649.56
2023-03-18T08:30:11.460Z,100654.47
2023-03-18T08:32:38.420Z,100654.75
2023-03-18T08:35:05.485Z,100649.28
2023-03-18T08:37:32.561Z,100650.91
2023-03-18T08:39:59.032Z,100664.31
2023-03-18T08:42:25.482Z,100669.47
2023-03-18T08:44:51.796Z,100664.25
2023-03-18T08:47:18.179Z,100659.00
2023-03-18T08:49:44.631Z,100664.69
2023-03-18T08:52:11.703Z,100663.09
2023-03-18T08:54:38.610Z,100660.28
2023-03-18T08:57:05.093Z,100664.63
2023-03-18T08:59:31.411Z,100663.75
2023-03-18T09:01:57.760Z,100654.28
2023-03-18T09:04:25.742Z,100654.22
2023-03-18T09:06:52.061Z,100662.50
2023-03-18T09:09:18.598Z,100666.91
2023-03-18T09:11:46.353Z,100662.00
2023-03-18T09:14:13.328Z,100659.81
2023-03-18T09:16:40.374Z,100645.03
2023-03-18T09:19:07.129Z,100658.13
2023-03-18T09:21:33.474Z,100647.16
2023-03-18T09:23:59.837Z,100648.28
2023-03-18T09:26:26.155Z,100650.47
2023-03-18T09:28:52.550Z,100646.13
2023-03-18T09:31:19.280Z,100655.94
2023-03-18T09:33:46.968Z,100654.88
2023-03-18T09:36:13.917Z,100654.28
2023-03-18T09:38:41.259Z,100649.88
2023-03-18T09:41:29.780Z,100652.63
2023-03-18T09:44:10.584Z,100649.88
2023-03-18T09:47:18.604Z,100655.63
2023-03-18T09:49:59.315Z,100656.91
2023-03-18T09:52:35.870Z,100660.19
2023-03-18T09:55:11.563Z,100649.22
2023-03-18T09:57:46.970Z,100657.09
2023-03-18T10:00:24.310Z,100656.91
2023-03-18T10:02:55.478Z,100648.69
2023-03-18T10:05:50.959Z,100654.56
2023-03-18T10:08:43.373Z,100641.31
2023-03-18T10:12:01.283Z,100660.28
2023-03-18T10:14:39.574Z,100666.91
2023-03-18T10:17:18.140Z,100659.13
2023-03-18T10:19:48.708Z,100662.41
2023-03-18T10:22:40.504Z,100657.19
2023-03-18T10:25:27.712Z,100654.69
2023-03-18T10:28:10.432Z,100657.56
2023-03-18T10:30:45.895Z,100655.84
2023-03-18T10:33:31.071Z,100651.97
2023-03-18T10:36:18.605Z,100652.50
2023-03-18T10:38:48.577Z,100645.31
2023-03-18T10:41:32.535Z,100650.19
2023-03-18T10:44:02.908Z,100648.81
2023-03-18T10:46:30.445Z,100652.91
2023-03-18T10:49:11.677Z,100649.63
2023-03-18T10:51:54.235Z,100657.22
2023-03-18T10:54:32.544Z,100651.41
2023-03-18T10:56:59.006Z,100652.78
2023-03-18T10:59:28.526Z,100658.03
2023-03-18T11:02:02.363Z,100643.41
2023-03-18T11:04:31.930Z,100650.34
2023-03-18T11:07:02.758Z,100648.75
2023-03-18T11:09:39.408Z,100649.59
2023-03-18T11:12:19.355Z,100652.38
2023-03-18T11:14:50.264Z,100649.19
2023-03-18T11:17:28.188Z,100651.03
2023-03-18T11:20:07.591Z,100639.41
2023-03-18T11:22:36.594Z,100652.94
2023-03-18T11:25:18.241Z,100650.03
2023-03-18T11:27:51.197Z,100648.09
2023-03-18T11:30:34.166Z,100656.41
2023-03-18T11:33:10.771Z,100653.16
2023-03-18T11:35:51.027Z,100657.25
2023-03-18T11:38:18.710Z,100658.91
2023-03-18T11:40:46.294Z,100649.38
2023-03-18T11:43:22.391Z,100635.16
2023-03-18T11:45:52.179Z,100657.81
2023-03-18T11:48:41.070Z,100642.84
2023-03-18T11:51:17.466Z,100648.44
2023-03-18T11:54:02.855Z,100642.41
2023-03-18T11:56:42.468Z,100636.19
2023-03-18T11:59:44.379Z,100634.97
2023-03-18T12:02:45.119Z,100629.72
2023-03-18T12:05:33.674Z,100634.59
2023-03-18T12:08:12.676Z,100638.53
2023-03-18T12:10:57.791Z,100641.00
2023-03-18T12:13:37.604Z,100636.94
2023-03-18T12:16:09.837Z,100641.06
2023-03-18T12:19:00.706Z,100636.25
2023-03-18T12:21:45.796Z,100638.03
2023-03-18T12:24:54.800Z,100628.16
2023-03-18T12:27:41.651Z,100622.50
2023-03-18T12:30:15.290Z,100623.31
2023-03-18T12:33:04.183Z,100612.16
2023-03-18T12:35:46.589Z,100614.44
2023-03-18T12:38:35.574Z,100619.38
2023-03-18T12:41:07.831Z,100613.41
2023-03-18T12:43:59.078Z,100619.44
2023-03-18T12:46:37.249Z,100609.19
2023-03-18T12:49:36.280Z,100607.22
2023-03-18T12:52:11.211Z,100600.16
2023-03-18T12:54:49.906Z,100599.03
2023-03-18T12:57:39.046Z,100584.13
2023-03-18T13:00:18.803Z,100582.00
2023-03-18T13:02:52.875Z,100583.50
2023-03-18T13:05:48.960Z,100583.47
2023-03-18T13:08:39.246Z,100582.13
2023-03-18T13:11:29.052Z,100574.38
2023-03-18T13:14:03.488Z,100568.78
2023-03-18T13:16:32.695Z,100574.06
2023-03-18T13:18:59.616Z,100576.16
2023-03-18T13:21:30.881Z,100579.31
2023-03-18T13:24:38.893Z,100575.25
2023-03-18T13:27:28.649Z,100581.16
2023-03-18T13:30:20.217Z,100580.44
2023-03-18T13:33:04.675Z,100577.91
2023-03-18T13:35:46.152Z,100578.13
2023-03-18T13:38:43.240Z,100581.78
2023-03-18T13:41:32.627Z,100580.34
2023-03-18T13:44:04.145Z,100581.41
2023-03-18T13:46:32.994Z,100576.72
2023-03-18T13:49:01.806Z,100582.91
2023-03-18T13:51:28.739Z,100590.94
2023-03-18T13:54:02.078Z,100577.91
2023-03-18T13:56:43.906Z,100585.28
2023-03-18T13:59:35.440Z,100591.50
2023-03-18T14:02:23.724Z,100594.00
2023-03-18T14:04:51.647Z,100586.97
2023-03-18T14:07:20.237Z,100583.97
2023-03-18T14:09:49.414Z,100584.91
2023-03-18T14:12:20.533Z,100587.13
2023-03-18T14:15:02.416Z,100579.47
2023-03-18T14:17:38.167Z,100579.28
2023-03-18T14:20:27.107Z,100580.47
2023-03-18T14:22:56.079Z,100580.66
2023-03-18T14:25:27.225Z,100589.25
2023-03-18T14:27:59.261Z,100587.31
2023-03-18T14:30:32.070Z,100596.69
2023-03-18T14:33:01.158Z,100586.03
2023-03-18T14:35:49.722Z,100583.38
2023-03-18T14:38:24.708Z,100591.31
2023-03-18T14:40:54.967Z,100580.41
2023-03-18T14:43:29.972Z,100572.41
2023-03-18T14:45:58.888Z,100578.38
2023-03-18T14:48:33.966Z,100558.25
2023-03-18T14:51:20.101Z,100553.78
2023-03-18T14:53:52.772Z,100554.53
2023-03-18T14:56:25.116Z,100545.66
2023-03-18T14:58:56.655Z,100538.66
2023-03-18T15:01:28.062Z,100535.97
2023-03-18T15:03:57.380Z,100537.69
2023-03-18T15:06:26.881Z,100531.91
2023-03-18T15:09:00.761Z,100538.06
2023-03-18T15:11:28.096Z,100537.19
2023-03-18T15:13:56.867Z,100536.88
2023-03-18T15:16:25.329Z,100537.91
2023-03-18T15:18:54.759Z,100532.22
2023-03-18T15:21:26.114Z,100532.84
2023-03-18T15:23:56.492Z,100530.47
2023-03-18T15:26:37.828Z,100531.59
2023-03-18T15:29:33.721Z,100542.78
2023-03-18T15:32:23.998Z,100537.09
2023-03-18T15:35:05.888Z,100525.88
2023-03-18T15:37:40.551Z,100532.59
2023-03-18T15:40:30.190Z,100528.97
2023-03-18T15:43:03.246Z,100534.78
2023-03-18T15:45:30.546Z,100537.00
2023-03-18T15:47:58.406Z,100534.13
2023-03-18T15:50:30.594Z,100535.75
2023-03-18T15:53:03.118Z,100532.25
2023-03-18T15:55:36.482Z,100532.50
2023-03-18T15:58:15.525Z,100532.03
2023-03-18T16:00:42.149Z,100527.75
2023-03-18T16:03:18.982Z,100523.91
2023-03-18T16:05:45.380Z,100529.69
2023-03-18T16:08:13.993Z,100533.25
2023-03-18T16:10:41.387Z,100524.66
2023-03-18T16:13:15.842Z,100540.78
2023-03-18T16:15:42.452Z,100530.56
2023-03-18T16:18:10.208Z,100528.19
2023-03-18T16:20:36.706Z,100539.19
2023-03-18T16:23:03.052Z,100538.66
2023-03-18T16:25:29.519Z,100536.38
2023-03-18T16:27:58.710Z,100540.44
2023-03-18T16:30:30.820Z,100542.25
2023-03-18T16:32:58.132Z,100549.50
2023-03-18T16:35:33.831Z,100539.72
2023-03-18T16:38:01.163Z,100545.72
2023-03-18T16:40:30.003Z,100554.53
2023-03-18T16:42:56.531Z,100558.41
2023-03-18T16:45:31.301Z,100560.41
2023-03-18T16:48:01.723Z,100558.56
2023-03-18T16:50:33.278Z,100553.41
2023-03-18T16:52:59.736Z,100564.47
2023-03-18T16:55:26.904Z,100567.22
2023-03-18T16:57:58.107Z,100570.47
2023-03-18T17:00:29.969Z,100577.47
2023-03-18T17:02:56.326Z,100565.41
2023-03-18T17:05:22.727Z,100574.81
2023-03-18T17:07:50.378Z,100584.66
2023-03-18T17:10:20.425Z,100586.59
2023-03-18T17:12:59.438Z,100584.53
2023-03-18T17:15:31.743Z,100578.53
2023-03-18T17:17:59.756Z,100583.81
2023-03-18T17:20:29.137Z,100580.84
2023-03-18T17:22:55.797Z,100588.81
2023-03-18T17:25:25.726Z,100588.84
2023-03-18T17:27:55.870Z,100593.53
2023-03-18T17:30:24.030Z,100587.78
2023-03-18T17:32:50.900Z,100589.78
2023-03-18T17:35:22.090Z,100597.25
2023-03-18T17:37:49.101Z,100594.28
2023-03-18T17:40:18.346Z,100596.78
2023-03-18T17:42:45.648Z,100597.94
2023-03-18T17:45:32.852Z,100599.06
2023-03-18T17:48:26.387Z,100603.16
2023-03-18T17:50:59.651Z,100600.22
2023-03-18T17:53:37.124Z,100603.78
2023-03-18T17:56:08.450Z,100601.09
2023-03-18T17:58:35.277Z,100606.97
2023-03-18T18:01:15.289Z,100611.44
2023-03-18T18:03:41.859Z,100611.78
2023-03-18T18:06:15.763Z,100618.06
2023-03-18T18:08:42.901Z,100612.06
2023-03-18T18:11:21.638Z,100615.94
2023-03-18T18:13:49.074Z,100623.13
2023-03-18T18:16:15.832Z,100616.84
2023-03-18T18:18:42.676Z,100622.63
2023-03-18T18:21:18.840Z,100616.91
2023-03-18T18:23:45.801Z,100620.50
2023-03-18T18:26:17.363Z,100611.25
2023-03-18T18:28:48.020Z,100609.66
2023-03-18T18:31:17.641Z,100620.56
2023-03-18T18:33:45.582Z,100621.69
2023-03-18T18:36:13.737Z,100621.94
2023-03-18T18:38:40.430Z,100621.72
2023-03-18T18:41:07.280Z,100626.09
2023-03-18T18:43:33.692Z,100620.88
2023-03-18T18:46:00.398Z,100622.25
2023-03-18T18:48:32.733Z,100628.53
2023-03-18T18:51:00.333Z,100634.28
2023-03-18T18:53:32.132Z,100639.19
2023-03-18T18:56:01.028Z,100635.34
2023-03-18T18:58:30.290Z,100638.59
2023-03-18T19:00:57.841Z,100629.34
2023-03-18T19:03:29.009Z,100635.63
2023-03-18T19:05:55.640Z,100643.53
2023-03-18T19:08:26.643Z,100636.44
2023-03-18T19:10:58.075Z,100640.00
2023-03-18T19:13:25.772Z,100635.34
2023-03-18T19:15:55.621Z,100636.44
2023-03-18T19:18:24.841Z,100636.44
2023-03-18T19:20:53.113Z,100637.25
2023-03-18T19:23:26.593Z,100640.25
2023-03-18T19:25:53.404Z,100648.97
2023-03-18T19:28:55.138Z,100654.44
2023-03-18T19:31:26.697Z,100656.06
2023-03-18T19:33:53.839Z,100664.75
2023-03-18T19:36:27.470Z,100660.94
2023-03-18T19:38:55.552Z,100657.13
2023-03-18T19:41:22.115Z,100666.41
2023-03-18T19:43:48.855Z,100672.41
2023-03-18T19:46:23.711Z,100667.00
2023-03-18T19:48:50.681Z,100669.94
2023-03-18T19:51:17.100Z,100669.91
2023-03-18T19:53:45.260Z,100669.66
2023-03-18T19:56:26.542Z,100668.56
2023-03-18T19:58:58.028Z,100675.09
2023-03-18T20:01:27.068Z,100667.94
2023-03-18T20:03:58.113Z,100672.44
2023-03-18T20:06:25.622Z,100677.03
2023-03-18T20:08:52.127Z,100679.25
2023-03-18T20:11:20.976Z,100684.69
2023-03-18T20:13:48.148Z,100682.53
2023-03-18T20:16:16.259Z,100684.88
2023-03-18T20:18:42.756Z,100691.16
2023-03-18T20:21:22.080Z,100683.50
2023-03-18T20:23:49.832Z,100688.13
2023-03-18T20:26:16.455Z,100689.47
2023-03-18T20:28:45.437Z,100695.16
2023-03-18T20:31:12.024Z,100692.47
2023-03-18T20:33:38.416Z,100698.69
2023-03-18T20:36:06.095Z,100703.63
2023-03-18T20:38:35.283Z,100694.34
2023-03-18T20:41:02.111Z,100693.53
2023-03-18T20:43:29.257Z,100696.00
2023-03-18T20:45:57.386Z,100701.97
2023-03-18T20:48:23.944Z,100698.19
2023-03-18T20:50:51.466Z,100694.91
2023-03-18T20:53:21.872Z,100700.34
2023-03-18T20:55:49.491Z,100706.31
2023-03-18T20:58:21.427Z,100703.56
2023-03-18T21:00:48.210Z,100699.97
2023-03-18T21:03:24.025Z,100698.84
2023-03-18T21:05:52.206Z,100695.03
2023-03-18T21:08:19.180Z,100706.97
2023-03-18T21:10:46.084Z,100701.78
2023-03-18T21:13:32.033Z,100705.59
2023-03-18T21:16:00.086Z,100701.78
2023-03-18T21:18:26.813Z,100699.06
2023-03-18T21:20:53.828Z,100698.56
2023-03-18T21:23:28.630Z,100698.25
2023-03-18T21:25:56.120Z,100703.88
2023-03-18T21:28:25.499Z,100701.06
2023-03-18T21:30:56.230Z,100698.91
2023-03-18T21:33:31.236Z,100701.69
2023-03-18T21:35:57.827Z,100690.25
2023-03-18T21:38:31.768Z,100690.00
2023-03-18T21:40:59.104Z,100688.66
2023-03-18T21:43:32.753Z,100692.78
2023-03-18T21:46:00.347Z,100699.28
2023-03-18T21:48:27.195Z,100693.84
2023-03-18T21:50:54.011Z,100691.38
2023-03-18T21:53:23.082Z,100694.16
2023-03-18T21:55:50.667Z,100694.16
2023-03-18T21:58:19.265Z,100695.03
2023-03-18T22:00:49.369Z,100690.69
2023-03-18T22:03:16.919Z,100694.28
2023-03-18T22:05:43.820Z,100688.78
2023-03-18T22:08:10.326Z,100689.06
2023-03-18T22:10:36.869Z,100691.56
2023-03-18T22:13:18.184Z,100694.84
2023-03-18T22:15:47.063Z,100683.66
2023-03-18T22:18:14.758Z,100674.97
2023-03-18T22:20:41.866Z,100678.00
2023-03-18T22:23:27.262Z,100673.59
2023-03-18T22:25:56.476Z,100671.44
2023-03-18T22:28:24.741Z,100679.06
2023-03-18T22:30:52.717Z,100675.78
2023-03-18T22:33:31.749Z,100675.25
2023-03-18T22:35:58.270Z,100681.22
2023-03-18T22:38:25.772Z,100678.75
2023-03-18T22:40:55.380Z,100675.78
2023-03-18T22:43:34.583Z,100680.97
2023-03-18T22:46:05.161Z,100679.09
2023-03-18T22:48:32.175Z,100674.72
2023-03-18T22:51:00.100Z,100678.53
2023-03-18T22:53:39.532Z,100679.66
2023-03-18T22:56:10.041Z,100675.56
2023-03-18T22:58:36.462Z,100671.50
2023-03-18T23:01:04.240Z,100674.78
2023-03-18T23:03:36.807Z,100674.78
2023-03-18T23:06:03.944Z,100677.25
2023-03-18T23:08:31.242Z,100678.09
2023-03-18T23:11:00.867Z,100674.25
2023-03-18T23:13:36.272Z,100673.75
2023-03-18T23:16:05.601Z,100683.00
2023-03-18T23:18:32.422Z,100710.16
2023-03-18T23:20:59.160Z,100715.56
2023-03-18T23:23:26.018Z,100704.94
2023-03-18T23:25:52.691Z,100704.38
2023-03-18T23:28:19.458Z,100710.13
2023-03-18T23:30:51.556Z,100702.81
2023-03-18T23:33:18.957Z,100698.72
2023-03-18T23:35:46.130Z,100706.41
2023-03-18T23:38:12.565Z,100700.41
2023-03-18T23:40:38.970Z,100699.84
2023-03-18T23:43:06.567Z,100701.22
2023-03-18T23:45:33.420Z,100706.44
2023-03-18T23:47:59.979Z,100703.63
2023-03-18T23:50:26.277Z,100701.97
2023-03-18T23:52:52.615Z,100702.81
2023-03-18T23:55:33.597Z,100698.19
2023-03-18T23:58:00.786Z,100695.97
